CFB Trenton
CYTR : rendu visible

Aérodrome :











RETROUVEZ-NOUS SUR...

 
LOGIN :

S'inscrire | Disclaimer

   EN    FR    IT 

 









Légende :    VFR   VFR Marginal   IFR   IFR Intensif   IFR Très Intensif
Visi : 
Plafond : 
>= 8 km
>= 3000ft
5 à 8 km
1000 à 3000 ft
1500m à 5 km
500 à 1000 ft
800 à 1500m
200 à 500 ft
< 800m
< 200 ft
Symboles :   Orages  Brouillard  Fortes neiges  Fortes précipitations  Vent > 20 kt






- Altitude de l'aérodrome : 283 ft
- Code IATA : YTR


CYTR - CFB Trenton

DERNIER METAR :
  • 100722Z 22008KT 15SM BKN016 OVC061 07/06 A2945 RMK SC7SC1 SLP975

METARs EXPIRÉS :
  • 100700Z 21010KT 15SM BKN009 OVC061 07/06 A2944 RMK SF7SC1 SLP973
  • 100618Z 22007KT 15SM OVC009 07/06 A2943 RMK SF8 SLP970
  • 100600Z 23010KT 15SM -RA OVC008 08/06 A2944 RMK SF8 PCPN VRY LGT SLP972
  • 100537Z 22008KT 15SM -RA OVC008 08/06 A2943 RMK SF8 PCPN VRY LGT SLP967
  • 100513Z 22007KT 15SM OVC005 07/06 A2942 RMK SF8 SLP967

TAF AMD TAF CYTR
Valide du 10 à 07h jusqu'au 11 à 06h UTC


100732Z 1007/1106 22010KT 5SM -RA BR BKN015 OVC060
TEMPO 1007/1012 P6SM NSW SCT015 BKN060
BECMG 1009/1011 25015G25KT
FM101200 25015G25KT P6SM SCT015 BKN025 BKN200
TEMPO 1012/1014 BKN015 OVC025
BECMG 1018/1020 30010G20KT
FM102000 30012G22KT P6SM SCT030 BKN220
BECMG 1100/1102 32008KT
FM110500 35005KT P6SM BKN030 OVC250 RMK NXT FCST BY 101200Z



MET'MAP, la Météo Aéronautique d'un coup d'oeil ! - Copyright ORBIFLY Décembre 2007 - Disclaimer

ORBIFLY MET'MAP TEAM :

Programmation & Développement : Alexandra Zaïnal
Sur une idée originale de : Baudouin d'Aumeries
Assistance à la programmation : Marc-Olivier Méhu
Soutien technique & logistique : Manuel Goepfert

Contact : metmap@orbifly.com




SOURCES & CREDITS :

   NOAA       Earth
Advisory